HomeShort term forecast

Short term forecast

Graphical weather forecast for the next 48 hours for Montreal:
Short term forecast
This weather forecast is automatically refreshed every 3 hours.

Hourly Experimental Forecast for the next 48 hours ®

Overall summary: Rain starting tomorrow afternoon.

 Date & Hour   Temp   Feel   Baro   Hum   Speed & Bearing   Precipitation   Visibility   Cloud cover   Conditions 
 24/04/2018 - 21:00  15.8°C  15.8°C  1018.5 hPa  43%  5.4 km/h   0.03 mm/h  16.1km  28%  Partly Cloudy 
 24/04/2018 - 22:00  14.6°C  14.6°C  1018.7 hPa  50%  5.2 km/h   0.04 mm/h  16.1km  59%  Partly Cloudy 
 24/04/2018 - 23:00  13.9°C  13.9°C  1018.9 hPa  57%  5.3 km/h   --  16.1km  86%  Mostly Cloudy 
 25/04/2018 - 00:00  12.5°C  12.5°C  1018.8 hPa  63%  6.9 km/h   0.02 mm/h  16.1km  98%  Overcast 
 25/04/2018 - 01:00  11.9°C  11.9°C  1018.3 hPa  65%  6.1 km/h   0.04 mm/h  16.1km  96%  Overcast 
 25/04/2018 - 02:00  11.6°C  11.6°C  1017.9 hPa  64%  7.1 km/h   --  16.1km  100%  Overcast 
 25/04/2018 - 03:00  11.3°C  11.3°C  1017.7 hPa  65%  7.9 km/h   0.06 mm/h  16.1km  100%  Overcast 
 25/04/2018 - 04:00  10.9°C  10.9°C  1017.4 hPa  66%  8.1 km/h   0.05 mm/h  16.1km  100%  Overcast 
 25/04/2018 - 05:00  10.5°C  10.5°C  1017.4 hPa  69%  8.4 km/h   0.10 mm/h  16.1km  100%  Overcast 
 25/04/2018 - 06:00  10.0°C  10.0°C  1017.3 hPa  73%  9.3 km/h   0.11 mm/h  16.1km  91%  Mostly Cloudy 
 25/04/2018 - 07:00  10.1°C  10.1°C  1017.3 hPa  76%  11.1 km/h   0.25 mm/h  16.1km  90%  Mostly Cloudy 
 25/04/2018 - 08:00  10.6°C  10.6°C  1017.2 hPa  76%  11.9 km/h   0.38 mm/h  16.1km  88%  Mostly Cloudy 
 25/04/2018 - 09:00  11.4°C  11.4°C  1016.8 hPa  74%  12.2 km/h   0.31 mm/h  16.1km  89%  Mostly Cloudy 
 25/04/2018 - 10:00  10.9°C  10.9°C  1016.2 hPa  79%  12.8 km/h   0.24 mm/h  16.1km  100%  Overcast 
 25/04/2018 - 11:00  11.7°C  11.7°C  1015.4 hPa  78%  13.0 km/h   0.26 mm/h  16.1km  99%  Overcast 
 25/04/2018 - 12:00  12.1°C  12.1°C  1014.6 hPa  78%  13.4 km/h   0.39 mm/h  16.1km  99%  Overcast 
 25/04/2018 - 13:00  12.3°C  12.3°C  1013.6 hPa  80%  14.0 km/h   0.58 mm/h  16.1km  100%  Overcast 
 25/04/2018 - 14:00  12.5°C  12.5°C  1012.7 hPa  81%  14.3 km/h   0.77 mm/h  16.1km  100%  Light Rain 
 25/04/2018 - 15:00  12.6°C  12.6°C  1011.7 hPa  84%  14.5 km/h   0.94 mm/h  16.1km  100%  Light Rain 
 25/04/2018 - 16:00  12.5°C  12.5°C  1010.8 hPa  87%  14.4 km/h   1.18 mm/h  11.8km  100%  Light Rain 
 25/04/2018 - 17:00  12.4°C  12.4°C  1009.8 hPa  89%  14.5 km/h   1.44 mm/h  8.7km  100%  Rain 
 25/04/2018 - 18:00  12.2°C  12.2°C  1009.0 hPa  91%  15.1 km/h   1.62 mm/h  8.4km  100%  Rain 
 25/04/2018 - 19:00  11.8°C  11.8°C  1008.1 hPa  92%  15.8 km/h   1.71 mm/h  9.8km  100%  Rain 
 25/04/2018 - 20:00  11.5°C  11.5°C  1007.3 hPa  94%  16.4 km/h   1.66 mm/h  11.9km  100%  Rain 
 25/04/2018 - 21:00  11.0°C  11.0°C  1006.5 hPa  95%  16.8 km/h   1.39 mm/h  14.6km  100%  Rain 
 25/04/2018 - 22:00  10.6°C  10.6°C  1005.7 hPa  97%  17.0 km/h   1.03 mm/h  16.1km  100%  Light Rain 
 25/04/2018 - 23:00  10.1°C  10.1°C  1004.8 hPa  99%  16.7 km/h   0.74 mm/h  16.1km  100%  Light Rain 
 26/04/2018 - 00:00  9.8°C  7.7°C  1003.8 hPa  100%  15.4 km/h   0.50 mm/h  16.1km  100%  Overcast 
 26/04/2018 - 01:00  9.7°C  7.8°C  1002.9 hPa  99%  13.5 km/h   0.31 mm/h  16.1km  100%  Overcast 
 26/04/2018 - 02:00  9.8°C  8.1°C  1002.0 hPa  98%  11.8 km/h   0.22 mm/h  16.1km  100%  Overcast 
 26/04/2018 - 03:00  9.7°C  8.2°C  1001.4 hPa  97%  10.4 km/h   0.21 mm/h  16.1km  100%  Overcast 
 26/04/2018 - 04:00  9.4°C  8.1°C  1000.9 hPa  98%  9.1 km/h   0.30 mm/h  16.1km  100%  Overcast 
 26/04/2018 - 05:00  8.8°C  7.5°C  1000.5 hPa  100%  8.2 km/h   0.44 mm/h  16.1km  100%  Overcast 
 26/04/2018 - 06:00  8.3°C  7.0°C  1000.3 hPa  100%  7.8 km/h   0.55 mm/h  16.1km  100%  Overcast 
 26/04/2018 - 07:00  8.1°C  6.8°C  1000.2 hPa  100%  7.8 km/h   0.67 mm/h  16.1km  100%  Overcast 
 26/04/2018 - 08:00  8.5°C  7.2°C  1000.2 hPa  100%  8.2 km/h   0.77 mm/h  16.1km  100%  Light Rain 
 26/04/2018 - 09:00  9.1°C  7.8°C  1000.3 hPa  98%  9.0 km/h   0.82 mm/h  16.1km  100%  Light Rain 
 26/04/2018 - 10:00  9.8°C  8.4°C  1000.5 hPa  95%  10.1 km/h   0.83 mm/h  16.1km  100%  Light Rain 
 26/04/2018 - 11:00  10.2°C  10.2°C  1000.7 hPa  93%  11.7 km/h   0.81 mm/h  16.1km  100%  Light Rain 
 26/04/2018 - 12:00  10.4°C  10.4°C  1001.0 hPa  92%  14.0 km/h   0.72 mm/h  16.1km  100%  Overcast 
 26/04/2018 - 13:00  10.5°C  10.5°C  1001.4 hPa  91%  16.8 km/h   0.61 mm/h  16.1km  100%  Overcast 
 26/04/2018 - 14:00  10.5°C  10.5°C  1001.8 hPa  90%  19.3 km/h   0.52 mm/h  16.1km  100%  Overcast 
 26/04/2018 - 15:00  10.7°C  10.7°C  1002.3 hPa  88%  20.9 km/h   0.49 mm/h  16.1km  92%  Mostly Cloudy 
 26/04/2018 - 16:00  11.0°C  11.0°C  1003.0 hPa  84%  22.0 km/h   0.51 mm/h  16.1km  81%  Mostly Cloudy 
 26/04/2018 - 17:00  11.2°C  11.2°C  1003.7 hPa  81%  22.2 km/h   0.50 mm/h  16.1km  73%  Mostly Cloudy 
 26/04/2018 - 18:00  11.3°C  11.3°C  1004.6 hPa  79%  20.8 km/h   0.33 mm/h  16.1km  68%  Mostly Cloudy 
 26/04/2018 - 19:00  11.2°C  11.2°C  1005.6 hPa  77%  18.8 km/h   0.15 mm/h  16.1km  65%  Mostly Cloudy 
 26/04/2018 - 20:00  10.9°C  10.9°C  1006.6 hPa  77%  17.0 km/h   0.07 mm/h  16.1km  60%  Mostly Cloudy 
Test

 

Past weather and reports

Past weatherFind in this section the past weather conditions, weather archive, graphics, reports and statistics.

Current conditions

Current weather condition for MontrealAll you need to know about the current weather conditions for Montreal. Weather data is updated every 10 minutes.

Weather forecast

Current Montreal weatherSince 2004, celinium.com website has provided accurate weather forecast for Montreal's island.